createdAt,value
2022-12-15T00:02:15.546Z,4.88
2022-12-15T00:05:00.857Z,5.25
2022-12-15T00:07:46.381Z,5.20
2022-12-15T00:10:35.014Z,5.00
2022-12-15T00:13:20.591Z,4.88
2022-12-15T00:16:06.291Z,4.30
2022-12-15T00:18:51.659Z,4.47
2022-12-15T00:21:36.984Z,4.05
2022-12-15T00:24:22.138Z,5.50
2022-12-15T00:27:07.613Z,4.85
2022-12-15T00:29:53.127Z,4.43
2022-12-15T00:32:38.292Z,5.07
2022-12-15T00:35:24.579Z,5.40
2022-12-15T00:38:10.111Z,5.63
2022-12-15T00:40:36.902Z,5.10
2022-12-15T00:43:03.978Z,5.55
2022-12-15T00:45:50.024Z,5.85
2022-12-15T00:48:16.772Z,5.50
2022-12-15T00:50:55.094Z,4.07
2022-12-15T00:53:41.527Z,4.72
2022-12-15T00:56:27.261Z,4.53
2022-12-15T00:59:12.910Z,4.13
2022-12-15T01:01:58.591Z,4.13
2022-12-15T01:04:43.935Z,5.05
2022-12-15T01:07:29.464Z,5.10
2022-12-15T01:10:15.123Z,4.57
2022-12-15T01:13:00.432Z,3.85
2022-12-15T01:15:45.771Z,5.03
2022-12-15T01:18:31.072Z,5.80
2022-12-15T01:21:02.179Z,5.03
2022-12-15T01:23:29.250Z,6.00
2022-12-15T01:25:56.418Z,5.70
2022-12-15T01:28:23.295Z,5.15
2022-12-15T01:30:50.077Z,5.05
2022-12-15T01:33:17.215Z,5.30
2022-12-15T01:35:44.030Z,5.32
2022-12-15T01:38:10.889Z,4.45
2022-12-15T01:40:46.783Z,5.88
2022-12-15T01:43:18.417Z,5.30
2022-12-15T01:45:52.151Z,6.50
2022-12-15T01:48:34.147Z,4.53
2022-12-15T01:51:21.980Z,5.90
2022-12-15T01:54:06.331Z,6.88
2022-12-15T01:56:37.878Z,4.53
2022-12-15T01:59:05.350Z,5.60
2022-12-15T02:01:32.160Z,5.45
2022-12-15T02:03:58.929Z,5.75
2022-12-15T02:06:25.706Z,6.38
2022-12-15T02:08:53.054Z,6.05
2022-12-15T02:11:28.669Z,5.72
2022-12-15T02:14:01.664Z,4.38
2022-12-15T02:16:50.003Z,5.75
2022-12-15T02:19:34.501Z,4.25
2022-12-15T02:24:52.419Z,6.00
2022-12-15T02:27:51.980Z,5.40
2022-12-15T02:30:23.163Z,4.88
2022-12-15T02:33:11.460Z,4.75
2022-12-15T02:35:52.089Z,5.03
2022-12-15T02:38:35.826Z,5.70
2022-12-15T02:41:03.658Z,5.95
2022-12-15T02:43:31.196Z,6.03
2022-12-15T02:46:05.312Z,5.30
2022-12-15T02:49:06.341Z,4.80
2022-12-15T02:51:43.356Z,5.57
2022-12-15T02:54:21.872Z,4.40
2022-12-15T02:57:24.869Z,4.55
2022-12-15T03:00:09.500Z,4.78
2022-12-15T03:02:38.141Z,4.57
2022-12-15T03:05:05.147Z,5.25
2022-12-15T03:07:31.842Z,4.88
2022-12-15T03:10:00.256Z,5.00
2022-12-15T03:12:27.634Z,5.55
2022-12-15T03:14:54.349Z,4.75
2022-12-15T03:17:21.070Z,5.05
2022-12-15T03:19:49.683Z,5.40
2022-12-15T03:22:16.781Z,5.20
2022-12-15T03:24:43.606Z,4.90
2022-12-15T03:27:10.394Z,4.88
2022-12-15T03:29:37.124Z,5.32
2022-12-15T03:32:04.139Z,4.75
2022-12-15T03:34:30.919Z,5.28
2022-12-15T03:36:59.267Z,4.57
2022-12-15T03:39:26.052Z,5.43
2022-12-15T03:41:52.937Z,4.80
2022-12-15T03:44:19.626Z,4.82
2022-12-15T03:46:46.397Z,5.68
2022-12-15T03:49:13.112Z,5.15
2022-12-15T03:51:39.862Z,4.88
2022-12-15T03:54:07.422Z,4.45
2022-12-15T03:56:34.190Z,6.10
2022-12-15T03:59:00.894Z,4.88
2022-12-15T04:01:30.096Z,5.53
2022-12-15T04:04:00.944Z,5.13
2022-12-15T04:06:28.786Z,4.88
2022-12-15T04:08:55.505Z,4.88
2022-12-15T04:11:22.262Z,4.85
2022-12-15T04:13:49.024Z,5.07
2022-12-15T04:16:19.728Z,5.57
2022-12-15T04:18:46.993Z,4.57
2022-12-15T04:21:13.728Z,4.70
2022-12-15T04:23:59.041Z,4.32
2022-12-15T04:26:44.518Z,5.00
2022-12-15T04:29:30.164Z,6.25
2022-12-15T04:32:15.701Z,4.68
2022-12-15T04:35:00.931Z,4.72
2022-12-15T04:37:46.459Z,6.03
2022-12-15T04:40:31.554Z,5.13
2022-12-15T04:43:16.595Z,4.13
2022-12-15T04:46:01.923Z,4.28
2022-12-15T04:48:47.237Z,4.07
2022-12-15T04:51:32.815Z,4.70
2022-12-15T04:54:18.212Z,4.40
2022-12-15T04:57:03.790Z,7.22
2022-12-15T04:59:49.202Z,4.20
2022-12-15T05:02:34.617Z,4.85
2022-12-15T05:05:20.278Z,5.43
2022-12-15T05:08:05.513Z,5.03
2022-12-15T05:10:50.855Z,4.82
2022-12-15T05:13:36.059Z,4.40
2022-12-15T05:16:21.289Z,4.97
2022-12-15T05:19:06.423Z,4.75
2022-12-15T05:21:51.687Z,4.88
2022-12-15T05:24:37.194Z,5.13
2022-12-15T05:27:22.734Z,5.38
2022-12-15T05:30:08.309Z,4.80
2022-12-15T05:32:35.053Z,5.03
2022-12-15T05:35:02.018Z,4.60
2022-12-15T05:37:28.905Z,4.60
2022-12-15T05:39:55.679Z,3.80
2022-12-15T05:42:22.417Z,4.40
2022-12-15T05:44:49.123Z,6.20
2022-12-15T05:47:16.594Z,5.10
2022-12-15T05:49:43.291Z,5.90
2022-12-15T05:52:10.041Z,4.72
2022-12-15T05:54:36.730Z,5.10
2022-12-15T05:57:03.555Z,5.53
2022-12-15T05:59:30.330Z,5.55
2022-12-15T06:01:57.115Z,5.10
2022-12-15T06:04:26.808Z,6.28
2022-12-15T06:06:53.547Z,5.20
2022-12-15T06:09:20.253Z,5.65
2022-12-15T06:11:47.026Z,5.38
2022-12-15T06:14:13.878Z,5.82
2022-12-15T06:16:50.037Z,5.50
2022-12-15T06:19:17.963Z,6.30
2022-12-15T06:21:44.709Z,5.28
2022-12-15T06:24:11.574Z,5.18
2022-12-15T06:26:38.961Z,6.47
2022-12-15T06:29:08.546Z,5.13
2022-12-15T06:31:35.711Z,4.88
2022-12-15T06:34:04.716Z,5.68
2022-12-15T06:36:31.501Z,5.05
2022-12-15T06:38:59.385Z,4.55
2022-12-15T06:41:26.326Z,5.70
2022-12-15T06:43:55.786Z,4.93
2022-12-15T06:46:22.798Z,4.50
2022-12-15T06:48:49.616Z,5.70
2022-12-15T06:51:18.803Z,6.20
2022-12-15T06:53:49.110Z,4.90
2022-12-15T06:56:23.368Z,5.82
2022-12-15T06:58:54.286Z,5.10
2022-12-15T07:01:22.273Z,4.35
2022-12-15T07:03:49.263Z,4.38
2022-12-15T07:06:16.503Z,4.47
2022-12-15T07:08:44.061Z,4.03
2022-12-15T07:11:11.981Z,4.88
2022-12-15T07:13:39.210Z,5.90
2022-12-15T07:16:06.805Z,5.75
2022-12-15T07:18:33.747Z,6.13
2022-12-15T07:21:08.042Z,5.07
2022-12-15T07:23:53.191Z,4.68
2022-12-15T07:26:21.039Z,5.75
2022-12-15T07:28:47.919Z,7.38
2022-12-15T07:31:15.572Z,7.15
2022-12-15T07:33:42.769Z,5.18
2022-12-15T07:36:09.676Z,5.15
2022-12-15T07:38:36.565Z,7.03
2022-12-15T07:41:04.433Z,4.68
2022-12-15T07:43:31.731Z,5.70
2022-12-15T07:45:59.263Z,6.07
2022-12-15T07:48:27.393Z,6.53
2022-12-15T07:51:05.117Z,6.53
2022-12-15T07:53:35.919Z,5.05
2022-12-15T07:56:08.838Z,6.25
2022-12-15T07:58:36.725Z,5.82
2022-12-15T08:01:08.587Z,6.13
2022-12-15T08:03:36.135Z,5.38
2022-12-15T08:06:07.987Z,5.90
2022-12-15T08:08:35.595Z,5.32
2022-12-15T08:11:06.541Z,6.97
2022-12-15T08:16:21.463Z,5.25
2022-12-15T08:18:48.946Z,5.85
2022-12-15T08:21:15.821Z,6.45
2022-12-15T08:23:42.675Z,5.90
2022-12-15T08:26:11.902Z,5.88
2022-12-15T08:28:39.375Z,5.20
2022-12-15T08:31:10.979Z,5.60
2022-12-15T08:33:37.848Z,6.72
2022-12-15T08:36:06.552Z,6.93
2022-12-15T08:38:33.403Z,5.57
2022-12-15T08:41:09.971Z,6.68
2022-12-15T08:43:41.140Z,6.25
2022-12-15T08:46:13.018Z,6.68
2022-12-15T08:48:40.183Z,5.55
2022-12-15T08:51:07.926Z,6.47
2022-12-15T08:53:34.746Z,6.35
2022-12-15T08:56:12.516Z,6.75
2022-12-15T08:58:39.639Z,6.45
2022-12-15T09:01:23.302Z,7.32
2022-12-15T09:03:54.143Z,7.93
2022-12-15T09:06:25.334Z,7.43
2022-12-15T09:08:56.631Z,6.22
2022-12-15T09:11:24.159Z,7.25
2022-12-15T09:13:51.219Z,6.68
2022-12-15T09:16:18.453Z,7.57
2022-12-15T09:18:50.124Z,7.68
2022-12-15T09:21:17.008Z,6.20
2022-12-15T09:23:46.214Z,6.13
2022-12-15T09:26:14.421Z,5.85
2022-12-15T09:28:41.739Z,7.25
2022-12-15T09:31:15.842Z,7.10
2022-12-15T09:36:09.904Z,6.57
2022-12-15T09:38:38.186Z,6.75
2022-12-15T09:41:14.808Z,7.28
2022-12-15T09:43:50.903Z,7.68
2022-12-15T09:46:27.007Z,8.20
2022-12-15T09:48:54.476Z,9.02
2022-12-15T09:51:21.148Z,7.93
2022-12-15T09:53:56.211Z,7.22
2022-12-15T09:56:38.001Z,7.95
2022-12-15T09:59:26.647Z,8.30
2022-12-15T10:02:00.999Z,8.20
2022-12-15T10:04:37.901Z,7.53
2022-12-15T10:07:12.101Z,8.52
2022-12-15T10:09:38.789Z,8.32
2022-12-15T10:12:17.425Z,8.25
2022-12-15T10:15:07.565Z,7.63
2022-12-15T10:17:46.580Z,7.15
2022-12-15T10:20:21.997Z,8.48
2022-12-15T10:25:35.633Z,8.88
2022-12-15T10:28:29.117Z,8.57
2022-12-15T10:31:02.293Z,10.15
2022-12-15T10:33:34.658Z,9.17
2022-12-15T10:36:02.059Z,8.43
2022-12-15T10:38:40.437Z,8.27
2022-12-15T10:41:22.779Z,10.80
2022-12-15T10:43:53.564Z,10.65
2022-12-15T10:46:25.862Z,10.02
2022-12-15T10:48:59.876Z,11.70
2022-12-15T10:51:44.730Z,9.63
2022-12-15T10:54:15.417Z,9.38
2022-12-15T10:56:58.779Z,9.80
2022-12-15T10:59:28.407Z,10.30
2022-12-15T11:01:55.175Z,11.10
2022-12-15T11:04:32.188Z,9.75
2022-12-15T11:07:00.459Z,9.73
2022-12-15T11:09:33.174Z,9.38
2022-12-15T11:12:18.944Z,8.27
2022-12-15T11:14:51.199Z,9.52
2022-12-15T11:17:22.268Z,8.85
2022-12-15T11:20:04.445Z,8.90
2022-12-15T11:22:53.372Z,9.23
2022-12-15T11:25:29.332Z,9.68
2022-12-15T11:27:57.360Z,9.80
2022-12-15T11:30:32.490Z,9.05
2022-12-15T11:33:00.180Z,10.00
2022-12-15T11:35:41.875Z,9.68
2022-12-15T11:38:19.605Z,11.00
2022-12-15T11:40:46.295Z,8.52
2022-12-15T11:43:36.765Z,10.90
2022-12-15T11:46:18.626Z,9.00
2022-12-15T11:49:07.879Z,10.23
2022-12-15T11:51:42.827Z,10.18
2022-12-15T11:54:47.109Z,9.50
2022-12-15T11:57:50.433Z,8.05
2022-12-15T12:00:21.573Z,10.27
2022-12-15T12:03:10.149Z,9.32
2022-12-15T12:05:46.107Z,10.68
2022-12-15T12:08:19.011Z,9.15
2022-12-15T12:11:22.021Z,9.52
2022-12-15T12:13:50.335Z,8.63
2022-12-15T12:16:48.697Z,8.48
2022-12-15T12:19:32.385Z,8.55
2022-12-15T12:22:04.623Z,8.40
2022-12-15T12:24:36.671Z,7.78
2022-12-15T12:27:50.362Z,9.00
2022-12-15T12:30:21.751Z,8.98
2022-12-15T12:33:04.327Z,9.77
2022-12-15T12:35:47.190Z,7.93
2022-12-15T12:40:59.540Z,8.57
2022-12-15T12:43:37.491Z,8.40
2022-12-15T12:46:17.232Z,8.25
2022-12-15T12:49:09.123Z,7.60
2022-12-15T12:51:53.388Z,7.88
2022-12-15T12:54:38.408Z,7.38
2022-12-15T12:57:14.209Z,7.38
2022-12-15T12:59:42.003Z,8.07
2022-12-15T13:02:15.028Z,8.82
2022-12-15T13:04:43.294Z,7.75
2022-12-15T13:07:29.367Z,9.45
2022-12-15T13:10:16.904Z,8.60
2022-12-15T13:12:52.380Z,8.75
2022-12-15T13:15:29.212Z,8.13
2022-12-15T13:18:00.234Z,8.43
2022-12-15T13:20:30.313Z,9.20
2022-12-15T13:23:17.461Z,9.27
2022-12-15T13:25:48.543Z,9.02
2022-12-15T13:28:39.200Z,8.70
2022-12-15T13:31:18.759Z,8.90
2022-12-15T13:33:54.951Z,7.57
2022-12-15T13:36:39.870Z,8.90
2022-12-15T13:39:12.674Z,8.82
2022-12-15T13:44:46.724Z,9.85
2022-12-15T13:47:17.091Z,10.43
2022-12-15T13:50:06.980Z,9.10
2022-12-15T13:53:08.691Z,9.52
2022-12-15T13:55:30.026Z,8.88
2022-12-15T13:58:07.367Z,8.10
2022-12-15T14:00:34.111Z,8.63
2022-12-15T14:03:11.274Z,7.88
2022-12-15T14:05:39.166Z,8.23
2022-12-15T14:08:15.540Z,7.93
2022-12-15T14:10:55.872Z,7.90
2022-12-15T14:13:34.566Z,7.88
2022-12-15T14:16:15.740Z,7.35
2022-12-15T14:18:43.043Z,7.70
2022-12-15T14:21:24.198Z,6.97
2022-12-15T14:24:36.559Z,6.38
2022-12-15T14:26:37.657Z,6.18
2022-12-15T14:29:06.134Z,6.50
2022-12-15T14:31:32.875Z,5.97
2022-12-15T14:34:03.351Z,5.60
2022-12-15T14:36:30.818Z,5.97
2022-12-15T14:39:01.955Z,5.15
2022-12-15T14:41:29.377Z,3.90
2022-12-15T14:44:38.044Z,4.00
2022-12-15T14:47:29.684Z,4.13
2022-12-15T14:49:57.668Z,4.75
2022-12-15T14:52:29.135Z,4.05
2022-12-15T14:54:57.856Z,3.80
2022-12-15T14:57:37.410Z,3.85
2022-12-15T15:00:26.752Z,4.90
2022-12-15T15:03:03.891Z,7.82
2022-12-15T15:03:07.530Z,8.85
2022-12-15T15:03:19.043Z,4.20
2022-12-15T15:05:48.245Z,4.28
2022-12-15T15:08:23.989Z,4.22
2022-12-15T15:10:53.697Z,6.03
2022-12-15T15:13:22.885Z,5.03
2022-12-15T15:15:55.743Z,5.68
2022-12-15T15:18:24.760Z,5.07
2022-12-15T15:20:56.681Z,4.95
2022-12-15T15:23:23.381Z,4.85
2022-12-15T15:25:57.271Z,4.80
2022-12-15T15:28:50.547Z,4.80
2022-12-15T15:31:36.688Z,3.55
2022-12-15T15:34:07.032Z,4.10
2022-12-15T15:36:36.100Z,5.13
2022-12-15T15:39:04.300Z,5.07
2022-12-15T15:41:32.202Z,4.10
2022-12-15T15:43:59.761Z,4.03
2022-12-15T15:46:29.135Z,5.00
2022-12-15T15:48:57.741Z,4.20
2022-12-15T15:51:26.864Z,4.72
2022-12-15T15:53:53.972Z,5.00
2022-12-15T15:56:20.979Z,4.13
2022-12-15T15:58:47.787Z,4.28
2022-12-15T16:01:14.479Z,4.28
2022-12-15T16:03:41.581Z,4.32
2022-12-15T16:06:18.858Z,3.88
2022-12-15T16:08:46.863Z,5.10
2022-12-15T16:11:13.554Z,4.28
2022-12-15T16:13:40.438Z,4.82
2022-12-15T16:16:09.864Z,4.65
2022-12-15T16:18:36.957Z,4.35
2022-12-15T16:21:03.742Z,4.75
2022-12-15T16:23:30.505Z,4.25
2022-12-15T16:25:58.591Z,3.90
2022-12-15T16:28:30.097Z,5.63
2022-12-15T16:30:58.734Z,5.00
2022-12-15T16:33:25.829Z,5.75
2022-12-15T16:35:52.713Z,4.75
2022-12-15T16:38:27.335Z,4.85
2022-12-15T16:40:55.254Z,5.10
2022-12-15T16:43:23.837Z,5.65
2022-12-15T16:45:51.634Z,7.47
2022-12-15T16:48:19.165Z,6.75
2022-12-15T16:50:49.321Z,7.20
2022-12-15T16:53:17.717Z,7.55
2022-12-15T16:55:44.833Z,5.97
2022-12-15T16:58:14.988Z,6.70
2022-12-15T17:00:41.820Z,7.78
2022-12-15T17:03:16.495Z,7.22
2022-12-15T17:05:44.882Z,6.30
2022-12-15T17:08:17.776Z,5.82
2022-12-15T17:10:44.680Z,6.80
2022-12-15T17:13:22.299Z,5.88
2022-12-15T17:15:49.046Z,6.03
2022-12-15T17:18:16.466Z,7.75
2022-12-15T17:20:43.269Z,7.43
2022-12-15T17:23:30.548Z,6.75
2022-12-15T17:28:44.289Z,6.82
2022-12-15T17:31:17.971Z,5.35
2022-12-15T17:33:44.812Z,6.30
2022-12-15T17:36:24.325Z,12.90
2022-12-15T17:39:01.173Z,8.75
2022-12-15T17:41:59.512Z,8.98
2022-12-15T17:44:34.103Z,10.73
2022-12-15T17:47:02.128Z,7.82
2022-12-15T17:49:35.069Z,7.85
2022-12-15T17:52:04.535Z,9.32
2022-12-15T17:54:31.240Z,9.73
2022-12-15T17:56:58.542Z,8.00
2022-12-15T17:59:25.219Z,8.20
2022-12-15T18:01:52.275Z,9.52
2022-12-15T18:04:19.134Z,8.20
2022-12-15T18:06:46.031Z,6.88
2022-12-15T18:09:17.431Z,11.68
2022-12-15T18:11:46.602Z,9.60
2022-12-15T18:14:14.939Z,9.98
2022-12-15T18:16:42.185Z,9.50
2022-12-15T18:19:08.936Z,10.18
2022-12-15T18:21:35.771Z,11.45
2022-12-15T18:24:02.742Z,7.03
2022-12-15T18:26:30.570Z,7.55
2022-12-15T18:28:57.247Z,8.13
2022-12-15T18:31:27.690Z,9.68
2022-12-15T18:34:01.099Z,9.35
2022-12-15T18:36:31.001Z,8.85
2022-12-15T18:38:57.755Z,7.93
2022-12-15T18:41:24.465Z,8.55
2022-12-15T18:43:51.270Z,7.57
2022-12-15T18:46:20.218Z,6.05
2022-12-15T18:48:47.120Z,6.82
2022-12-15T18:51:18.613Z,7.03
2022-12-15T18:53:45.352Z,7.20
2022-12-15T18:56:14.538Z,9.30
2022-12-15T18:58:41.507Z,14.63
2022-12-15T19:01:08.428Z,10.30
2022-12-15T19:03:36.188Z,20.13
2022-12-15T19:06:10.721Z,9.68
2022-12-15T19:11:07.712Z,14.15
2022-12-15T19:13:36.324Z,11.23
2022-12-15T19:16:04.446Z,8.30
2022-12-15T19:18:49.817Z,11.77
2022-12-15T19:21:44.358Z,9.15
2022-12-15T19:24:42.332Z,9.95
2022-12-15T19:27:13.785Z,7.35
2022-12-15T19:29:40.667Z,7.55
2022-12-15T19:32:07.770Z,6.95
2022-12-15T19:34:34.940Z,7.20
2022-12-15T19:37:01.827Z,5.88
2022-12-15T19:39:28.627Z,8.25
2022-12-15T19:41:55.430Z,7.75
2022-12-15T19:44:22.144Z,8.15
2022-12-15T19:46:48.832Z,8.05
2022-12-15T19:49:16.016Z,6.22
2022-12-15T19:51:43.649Z,6.93
2022-12-15T19:54:16.225Z,8.10
2022-12-15T19:56:43.116Z,7.45
2022-12-15T19:59:25.891Z,7.30
2022-12-15T20:01:53.092Z,8.65
2022-12-15T20:04:24.012Z,6.35
2022-12-15T20:06:51.158Z,5.70
2022-12-15T20:09:20.815Z,6.20
2022-12-15T20:11:47.541Z,5.93
2022-12-15T20:14:16.010Z,6.45
2022-12-15T20:16:43.204Z,7.35
2022-12-15T20:19:10.057Z,6.93
2022-12-15T20:21:37.775Z,6.72
2022-12-15T20:24:14.171Z,6.88
2022-12-15T20:26:40.888Z,6.20
2022-12-15T20:29:11.514Z,6.32
2022-12-15T20:31:38.288Z,5.93
2022-12-15T20:34:05.061Z,5.95
2022-12-15T20:36:31.826Z,5.70
2022-12-15T20:38:58.527Z,5.45
2022-12-15T20:41:28.734Z,5.88
2022-12-15T20:43:55.885Z,6.15
2022-12-15T20:46:24.464Z,6.63
2022-12-15T20:48:51.975Z,7.07
2022-12-15T20:51:26.691Z,5.43
2022-12-15T20:53:54.585Z,5.78
2022-12-15T20:56:23.457Z,6.72
2022-12-15T20:58:53.676Z,6.07
2022-12-15T21:01:28.189Z,8.40
2022-12-15T21:03:56.533Z,6.85
2022-12-15T21:06:23.979Z,6.70
2022-12-15T21:08:50.700Z,6.05
2022-12-15T21:11:18.632Z,6.15
2022-12-15T21:13:45.961Z,5.88
2022-12-15T21:16:24.085Z,5.20
2022-12-15T21:19:18.741Z,6.05
2022-12-15T21:21:46.718Z,5.88
2022-12-15T21:24:22.855Z,7.70
2022-12-15T21:26:50.177Z,6.65
2022-12-15T21:29:18.802Z,6.68
2022-12-15T21:31:46.034Z,6.45
2022-12-15T21:34:13.074Z,6.88
2022-12-15T21:36:41.566Z,6.85
2022-12-15T21:39:11.595Z,7.80
2022-12-15T21:41:39.876Z,7.40
2022-12-15T21:44:12.380Z,8.02
2022-12-15T21:46:39.141Z,6.15
2022-12-15T21:49:14.920Z,8.10
2022-12-15T21:51:46.638Z,7.43
2022-12-15T21:54:30.719Z,6.53
2022-12-15T21:59:25.618Z,6.05
2022-12-15T22:01:54.375Z,5.88
2022-12-15T22:04:23.973Z,6.30
2022-12-15T22:06:51.110Z,7.60
2022-12-15T22:09:18.679Z,6.47
2022-12-15T22:11:46.891Z,6.03
2022-12-15T22:14:31.915Z,6.57
2022-12-15T22:16:59.071Z,6.93
2022-12-15T22:19:25.920Z,5.75
2022-12-15T22:21:52.880Z,6.63
2022-12-15T22:24:19.646Z,7.45
2022-12-15T22:26:46.478Z,6.97
2022-12-15T22:29:20.836Z,6.82
2022-12-15T22:31:48.490Z,5.85
2022-12-15T22:34:22.887Z,7.18
2022-12-15T22:36:50.527Z,5.95
2022-12-15T22:39:18.904Z,6.53
2022-12-15T22:41:47.709Z,6.93
2022-12-15T22:44:18.777Z,6.47
2022-12-15T22:46:45.585Z,7.07
2022-12-15T22:49:18.084Z,6.95
2022-12-15T22:51:44.867Z,6.32
2022-12-15T22:54:19.550Z,7.43
2022-12-15T22:56:47.231Z,7.60
2022-12-15T22:59:17.874Z,5.85
2022-12-15T23:01:44.892Z,6.07
2022-12-15T23:04:11.643Z,7.85
2022-12-15T23:06:38.330Z,5.88
2022-12-15T23:09:05.159Z,6.10
2022-12-15T23:11:37.639Z,6.18
2022-12-15T23:14:12.275Z,6.30
2022-12-15T23:16:39.153Z,7.47
2022-12-15T23:19:07.792Z,6.88
2022-12-15T23:21:35.370Z,7.03
2022-12-15T23:24:05.091Z,6.35
2022-12-15T23:26:31.882Z,6.25
2022-12-15T23:28:58.605Z,6.97
2022-12-15T23:31:25.339Z,7.55
2022-12-15T23:33:52.380Z,5.65
2022-12-15T23:36:19.684Z,6.35
2022-12-15T23:38:46.491Z,6.75
2022-12-15T23:41:16.953Z,5.15
2022-12-15T23:43:44.016Z,4.93
2022-12-15T23:46:10.879Z,6.68
2022-12-15T23:48:39.632Z,6.03
2022-12-15T23:51:11.257Z,7.05
2022-12-15T23:53:38.160Z,5.68
2022-12-15T23:56:11.771Z,6.25
2022-12-15T23:58:39.420Z,5.45
